sensor_id;sensor_type;location;lat;lon;timestamp;P1;durP1;ratioP1;P2;durP2;ratioP2
30233;SDS011;17046;52.074;4.748;2022-11-20T00:03:32;27.20;;;14.00;;
30233;SDS011;17046;52.074;4.748;2022-11-20T00:06:02;26.10;;;13.43;;
30233;SDS011;17046;52.074;4.748;2022-11-20T00:08:29;23.90;;;13.03;;
30233;SDS011;17046;52.074;4.748;2022-11-20T00:10:54;26.70;;;13.50;;
30233;SDS011;17046;52.074;4.748;2022-11-20T00:13:20;22.67;;;13.10;;
30233;SDS011;17046;52.074;4.748;2022-11-20T00:15:45;23.87;;;13.23;;
30233;SDS011;17046;52.074;4.748;2022-11-20T00:18:11;25.67;;;12.97;;
30233;SDS011;17046;52.074;4.748;2022-11-20T00:20:36;21.23;;;12.13;;
30233;SDS011;17046;52.074;4.748;2022-11-20T00:23:02;22.73;;;12.43;;
30233;SDS011;17046;52.074;4.748;2022-11-20T00:25:28;24.47;;;12.00;;
30233;SDS011;17046;52.074;4.748;2022-11-20T00:27:53;21.73;;;11.97;;
30233;SDS011;17046;52.074;4.748;2022-11-20T00:30:19;21.27;;;12.17;;
30233;SDS011;17046;52.074;4.748;2022-11-20T00:32:44;20.03;;;11.37;;
30233;SDS011;17046;52.074;4.748;2022-11-20T00:35:10;21.63;;;11.33;;
30233;SDS011;17046;52.074;4.748;2022-11-20T00:37:35;19.43;;;11.30;;
30233;SDS011;17046;52.074;4.748;2022-11-20T00:40:01;20.90;;;11.60;;
30233;SDS011;17046;52.074;4.748;2022-11-20T00:42:27;21.17;;;11.83;;
30233;SDS011;17046;52.074;4.748;2022-11-20T00:44:52;18.90;;;10.97;;
30233;SDS011;17046;52.074;4.748;2022-11-20T00:47:18;20.20;;;11.40;;
30233;SDS011;17046;52.074;4.748;2022-11-20T00:49:43;22.80;;;11.10;;
30233;SDS011;17046;52.074;4.748;2022-11-20T00:52:09;21.37;;;11.63;;
30233;SDS011;17046;52.074;4.748;2022-11-20T00:54:34;23.00;;;11.73;;
30233;SDS011;17046;52.074;4.748;2022-11-20T00:57:00;20.90;;;10.97;;
30233;SDS011;17046;52.074;4.748;2022-11-20T00:59:25;21.53;;;11.30;;
30233;SDS011;17046;52.074;4.748;2022-11-20T01:01:51;20.33;;;10.57;;
30233;SDS011;17046;52.074;4.748;2022-11-20T01:04:16;20.33;;;11.47;;
30233;SDS011;17046;52.074;4.748;2022-11-20T01:06:43;20.07;;;11.23;;
30233;SDS011;17046;52.074;4.748;2022-11-20T01:09:13;21.93;;;11.97;;
30233;SDS011;17046;52.074;4.748;2022-11-20T01:11:40;23.77;;;11.60;;
30233;SDS011;17046;52.074;4.748;2022-11-20T01:14:09;19.90;;;11.97;;
30233;SDS011;17046;52.074;4.748;2022-11-20T01:16:38;20.43;;;11.63;;
30233;SDS011;17046;52.074;4.748;2022-11-20T01:19:15;20.10;;;11.60;;
30233;SDS011;17046;52.074;4.748;2022-11-20T01:21:42;23.67;;;12.77;;
30233;SDS011;17046;52.074;4.748;2022-11-20T01:24:13;21.87;;;11.27;;
30233;SDS011;17046;52.074;4.748;2022-11-20T01:26:41;24.50;;;12.00;;
30233;SDS011;17046;52.074;4.748;2022-11-20T01:29:15;21.10;;;12.20;;
30233;SDS011;17046;52.074;4.748;2022-11-20T01:31:45;21.70;;;11.83;;
30233;SDS011;17046;52.074;4.748;2022-11-20T01:34:14;22.60;;;11.80;;
30233;SDS011;17046;52.074;4.748;2022-11-20T01:36:42;24.10;;;11.77;;
30233;SDS011;17046;52.074;4.748;2022-11-20T01:39:13;21.43;;;11.43;;
30233;SDS011;17046;52.074;4.748;2022-11-20T01:41:41;22.50;;;11.17;;
30233;SDS011;17046;52.074;4.748;2022-11-20T01:47:27;23.80;;;12.73;;
30233;SDS011;17046;52.074;4.748;2022-11-20T01:50:15;24.63;;;12.90;;
30233;SDS011;17046;52.074;4.748;2022-11-20T01:53:05;21.97;;;12.73;;
30233;SDS011;17046;52.074;4.748;2022-11-20T01:55:35;22.27;;;12.40;;
30233;SDS011;17046;52.074;4.748;2022-11-20T01:58:08;24.70;;;12.40;;
30233;SDS011;17046;52.074;4.748;2022-11-20T02:00:34;23.67;;;12.07;;
30233;SDS011;17046;52.074;4.748;2022-11-20T02:03:01;22.17;;;12.37;;
30233;SDS011;17046;52.074;4.748;2022-11-20T02:05:38;22.23;;;12.20;;
30233;SDS011;17046;52.074;4.748;2022-11-20T02:08:15;23.67;;;12.47;;
30233;SDS011;17046;52.074;4.748;2022-11-20T02:10:41;25.43;;;12.17;;
30233;SDS011;17046;52.074;4.748;2022-11-20T02:13:06;25.80;;;14.10;;
30233;SDS011;17046;52.074;4.748;2022-11-20T02:15:51;28.87;;;14.27;;
30233;SDS011;17046;52.074;4.748;2022-11-20T02:18:18;26.20;;;14.40;;
30233;SDS011;17046;52.074;4.748;2022-11-20T02:20:45;40.10;;;18.83;;
30233;SDS011;17046;52.074;4.748;2022-11-20T02:25:51;49.60;;;22.73;;
30233;SDS011;17046;52.074;4.748;2022-11-20T02:28:17;51.47;;;24.43;;
30233;SDS011;17046;52.074;4.748;2022-11-20T02:30:43;53.40;;;23.33;;
30233;SDS011;17046;52.074;4.748;2022-11-20T02:33:09;48.97;;;21.67;;
30233;SDS011;17046;52.074;4.748;2022-11-20T02:38:01;36.63;;;17.73;;
30233;SDS011;17046;52.074;4.748;2022-11-20T02:40:27;42.23;;;19.63;;
30233;SDS011;17046;52.074;4.748;2022-11-20T02:42:54;33.13;;;17.40;;
30233;SDS011;17046;52.074;4.748;2022-11-20T02:45:21;37.03;;;18.43;;
30233;SDS011;17046;52.074;4.748;2022-11-20T02:47:48;39.60;;;18.53;;
30233;SDS011;17046;52.074;4.748;2022-11-20T02:50:14;30.57;;;16.20;;
30233;SDS011;17046;52.074;4.748;2022-11-20T02:52:39;30.17;;;15.40;;
30233;SDS011;17046;52.074;4.748;2022-11-20T02:55:05;32.93;;;15.00;;
30233;SDS011;17046;52.074;4.748;2022-11-20T02:57:31;25.63;;;13.80;;
30233;SDS011;17046;52.074;4.748;2022-11-20T02:59:57;27.03;;;14.37;;
30233;SDS011;17046;52.074;4.748;2022-11-20T03:02:22;30.70;;;14.47;;
30233;SDS011;17046;52.074;4.748;2022-11-20T03:04:48;27.97;;;14.50;;
30233;SDS011;17046;52.074;4.748;2022-11-20T03:07:13;28.57;;;13.27;;
30233;SDS011;17046;52.074;4.748;2022-11-20T03:09:39;24.80;;;13.00;;
30233;SDS011;17046;52.074;4.748;2022-11-20T03:12:05;25.10;;;13.37;;
30233;SDS011;17046;52.074;4.748;2022-11-20T03:14:30;25.30;;;13.17;;
30233;SDS011;17046;52.074;4.748;2022-11-20T03:16:56;29.70;;;14.00;;
30233;SDS011;17046;52.074;4.748;2022-11-20T03:19:22;28.53;;;13.73;;
30233;SDS011;17046;52.074;4.748;2022-11-20T03:21:47;24.00;;;13.10;;
30233;SDS011;17046;52.074;4.748;2022-11-20T03:24:13;28.10;;;14.73;;
30233;SDS011;17046;52.074;4.748;2022-11-20T03:26:39;24.23;;;13.73;;
30233;SDS011;17046;52.074;4.748;2022-11-20T03:29:05;22.57;;;12.70;;
30233;SDS011;17046;52.074;4.748;2022-11-20T03:31:32;23.47;;;12.37;;
30233;SDS011;17046;52.074;4.748;2022-11-20T03:34:00;23.40;;;13.37;;
30233;SDS011;17046;52.074;4.748;2022-11-20T03:36:26;22.87;;;12.03;;
30233;SDS011;17046;52.074;4.748;2022-11-20T03:38:55;22.77;;;12.83;;
30233;SDS011;17046;52.074;4.748;2022-11-20T03:41:26;22.83;;;12.83;;
30233;SDS011;17046;52.074;4.748;2022-11-20T03:43:54;23.43;;;12.40;;
30233;SDS011;17046;52.074;4.748;2022-11-20T03:46:21;26.07;;;13.27;;
30233;SDS011;17046;52.074;4.748;2022-11-20T03:48:47;23.93;;;11.90;;
30233;SDS011;17046;52.074;4.748;2022-11-20T03:51:15;24.93;;;13.03;;
30233;SDS011;17046;52.074;4.748;2022-11-20T03:53:48;25.47;;;12.67;;
30233;SDS011;17046;52.074;4.748;2022-11-20T03:56:16;25.30;;;13.20;;
30233;SDS011;17046;52.074;4.748;2022-11-20T03:58:44;24.27;;;12.10;;
30233;SDS011;17046;52.074;4.748;2022-11-20T04:01:11;24.13;;;13.10;;
30233;SDS011;17046;52.074;4.748;2022-11-20T04:03:39;23.83;;;13.00;;
30233;SDS011;17046;52.074;4.748;2022-11-20T04:06:06;28.20;;;13.73;;
30233;SDS011;17046;52.074;4.748;2022-11-20T04:08:34;24.77;;;12.03;;
30233;SDS011;17046;52.074;4.748;2022-11-20T04:11:09;21.17;;;11.80;;
30233;SDS011;17046;52.074;4.748;2022-11-20T04:13:39;23.60;;;12.80;;
30233;SDS011;17046;52.074;4.748;2022-11-20T04:16:06;25.17;;;13.57;;
30233;SDS011;17046;52.074;4.748;2022-11-20T04:18:32;25.30;;;13.90;;
30233;SDS011;17046;52.074;4.748;2022-11-20T04:20:58;26.13;;;12.87;;
30233;SDS011;17046;52.074;4.748;2022-11-20T04:23:25;25.90;;;13.10;;
30233;SDS011;17046;52.074;4.748;2022-11-20T04:25:50;26.87;;;13.17;;
30233;SDS011;17046;52.074;4.748;2022-11-20T04:28:16;26.17;;;13.57;;
30233;SDS011;17046;52.074;4.748;2022-11-20T04:30:42;23.80;;;11.97;;
30233;SDS011;17046;52.074;4.748;2022-11-20T04:33:07;26.83;;;13.73;;
30233;SDS011;17046;52.074;4.748;2022-11-20T04:35:36;22.40;;;12.17;;
30233;SDS011;17046;52.074;4.748;2022-11-20T04:38:02;25.20;;;13.37;;
30233;SDS011;17046;52.074;4.748;2022-11-20T04:40:29;24.87;;;13.43;;
30233;SDS011;17046;52.074;4.748;2022-11-20T04:42:55;23.83;;;12.77;;
30233;SDS011;17046;52.074;4.748;2022-11-20T04:45:20;21.80;;;11.87;;
30233;SDS011;17046;52.074;4.748;2022-11-20T04:47:47;25.73;;;13.53;;
30233;SDS011;17046;52.074;4.748;2022-11-20T04:50:12;26.27;;;13.83;;
30233;SDS011;17046;52.074;4.748;2022-11-20T04:52:38;24.67;;;12.80;;
30233;SDS011;17046;52.074;4.748;2022-11-20T04:55:04;25.80;;;12.97;;
30233;SDS011;17046;52.074;4.748;2022-11-20T04:57:30;23.17;;;12.83;;
30233;SDS011;17046;52.074;4.748;2022-11-20T04:59:55;30.47;;;13.30;;
30233;SDS011;17046;52.074;4.748;2022-11-20T05:02:21;27.17;;;13.57;;
30233;SDS011;17046;52.074;4.748;2022-11-20T05:04:46;24.23;;;13.23;;
30233;SDS011;17046;52.074;4.748;2022-11-20T05:07:12;23.30;;;12.77;;
30233;SDS011;17046;52.074;4.748;2022-11-20T05:09:37;29.60;;;13.93;;
30233;SDS011;17046;52.074;4.748;2022-11-20T05:12:03;28.73;;;13.93;;
30233;SDS011;17046;52.074;4.748;2022-11-20T05:14:29;25.73;;;13.43;;
30233;SDS011;17046;52.074;4.748;2022-11-20T05:16:54;24.33;;;13.77;;
30233;SDS011;17046;52.074;4.748;2022-11-20T05:19:20;28.20;;;14.53;;
30233;SDS011;17046;52.074;4.748;2022-11-20T05:21:45;26.50;;;12.70;;
30233;SDS011;17046;52.074;4.748;2022-11-20T05:24:11;27.57;;;14.13;;
30233;SDS011;17046;52.074;4.748;2022-11-20T05:26:37;26.37;;;12.63;;
30233;SDS011;17046;52.074;4.748;2022-11-20T05:29:02;30.13;;;14.73;;
30233;SDS011;17046;52.074;4.748;2022-11-20T05:31:28;28.83;;;13.90;;
30233;SDS011;17046;52.074;4.748;2022-11-20T05:33:54;26.40;;;14.03;;
30233;SDS011;17046;52.074;4.748;2022-11-20T05:36:20;27.67;;;14.30;;
30233;SDS011;17046;52.074;4.748;2022-11-20T05:38:46;25.47;;;13.97;;
30233;SDS011;17046;52.074;4.748;2022-11-20T05:41:13;28.43;;;14.47;;
30233;SDS011;17046;52.074;4.748;2022-11-20T05:43:40;28.67;;;14.27;;
30233;SDS011;17046;52.074;4.748;2022-11-20T05:46:07;28.13;;;13.83;;
30233;SDS011;17046;52.074;4.748;2022-11-20T05:48:34;24.63;;;12.87;;
30233;SDS011;17046;52.074;4.748;2022-11-20T05:51:01;29.27;;;14.97;;
30233;SDS011;17046;52.074;4.748;2022-11-20T05:53:29;28.13;;;13.63;;
30233;SDS011;17046;52.074;4.748;2022-11-20T05:56:01;26.10;;;13.50;;
30233;SDS011;17046;52.074;4.748;2022-11-20T05:58:32;26.23;;;13.70;;
30233;SDS011;17046;52.074;4.748;2022-11-20T06:01:07;27.87;;;13.70;;
30233;SDS011;17046;52.074;4.748;2022-11-20T06:03:38;26.57;;;14.20;;
30233;SDS011;17046;52.074;4.748;2022-11-20T06:06:04;29.70;;;14.20;;
30233;SDS011;17046;52.074;4.748;2022-11-20T06:08:31;26.90;;;14.07;;
30233;SDS011;17046;52.074;4.748;2022-11-20T06:10:57;27.80;;;14.20;;
30233;SDS011;17046;52.074;4.748;2022-11-20T06:13:23;25.57;;;13.57;;
30233;SDS011;17046;52.074;4.748;2022-11-20T06:15:52;30.27;;;14.17;;
30233;SDS011;17046;52.074;4.748;2022-11-20T06:18:18;30.27;;;14.63;;
30233;SDS011;17046;52.074;4.748;2022-11-20T06:20:44;28.73;;;14.43;;
30233;SDS011;17046;52.074;4.748;2022-11-20T06:23:11;33.13;;;15.73;;
30233;SDS011;17046;52.074;4.748;2022-11-20T06:25:38;31.83;;;15.77;;
30233;SDS011;17046;52.074;4.748;2022-11-20T06:28:04;30.93;;;15.30;;
30233;SDS011;17046;52.074;4.748;2022-11-20T06:30:29;28.00;;;14.43;;
30233;SDS011;17046;52.074;4.748;2022-11-20T06:32:55;30.03;;;14.93;;
30233;SDS011;17046;52.074;4.748;2022-11-20T06:35:20;29.23;;;15.80;;
30233;SDS011;17046;52.074;4.748;2022-11-20T06:37:46;29.03;;;15.40;;
30233;SDS011;17046;52.074;4.748;2022-11-20T06:40:11;29.30;;;14.60;;
30233;SDS011;17046;52.074;4.748;2022-11-20T06:42:37;29.93;;;14.90;;
30233;SDS011;17046;52.074;4.748;2022-11-20T06:45:03;29.77;;;14.87;;
30233;SDS011;17046;52.074;4.748;2022-11-20T06:47:29;29.17;;;15.20;;
30233;SDS011;17046;52.074;4.748;2022-11-20T06:49:54;30.43;;;15.43;;
30233;SDS011;17046;52.074;4.748;2022-11-20T06:52:20;26.40;;;14.73;;
30233;SDS011;17046;52.074;4.748;2022-11-20T06:54:46;26.90;;;14.47;;
30233;SDS011;17046;52.074;4.748;2022-11-20T06:57:11;27.17;;;14.40;;
30233;SDS011;17046;52.074;4.748;2022-11-20T06:59:37;30.50;;;15.20;;
30233;SDS011;17046;52.074;4.748;2022-11-20T07:02:02;31.47;;;15.83;;
30233;SDS011;17046;52.074;4.748;2022-11-20T07:04:28;28.83;;;15.23;;
30233;SDS011;17046;52.074;4.748;2022-11-20T07:06:53;29.10;;;15.80;;
30233;SDS011;17046;52.074;4.748;2022-11-20T07:09:19;31.13;;;15.40;;
30233;SDS011;17046;52.074;4.748;2022-11-20T07:11:44;29.37;;;14.83;;
30233;SDS011;17046;52.074;4.748;2022-11-20T07:14:10;26.20;;;14.53;;
30233;SDS011;17046;52.074;4.748;2022-11-20T07:16:35;30.27;;;15.73;;
30233;SDS011;17046;52.074;4.748;2022-11-20T07:19:01;30.73;;;15.10;;
30233;SDS011;17046;52.074;4.748;2022-11-20T07:21:26;32.60;;;15.83;;
30233;SDS011;17046;52.074;4.748;2022-11-20T07:23:52;30.33;;;15.87;;
30233;SDS011;17046;52.074;4.748;2022-11-20T07:26:17;29.83;;;15.50;;
30233;SDS011;17046;52.074;4.748;2022-11-20T07:28:44;28.07;;;15.07;;
30233;SDS011;17046;52.074;4.748;2022-11-20T07:31:10;35.37;;;15.80;;
30233;SDS011;17046;52.074;4.748;2022-11-20T07:33:37;31.63;;;15.77;;
30233;SDS011;17046;52.074;4.748;2022-11-20T07:36:02;28.13;;;14.80;;
30233;SDS011;17046;52.074;4.748;2022-11-20T07:38:28;29.07;;;15.60;;
30233;SDS011;17046;52.074;4.748;2022-11-20T07:40:57;30.60;;;16.10;;
30233;SDS011;17046;52.074;4.748;2022-11-20T07:43:23;29.47;;;15.00;;
30233;SDS011;17046;52.074;4.748;2022-11-20T07:45:50;32.07;;;15.57;;
30233;SDS011;17046;52.074;4.748;2022-11-20T07:48:15;30.37;;;15.53;;
30233;SDS011;17046;52.074;4.748;2022-11-20T07:50:41;33.13;;;15.53;;
30233;SDS011;17046;52.074;4.748;2022-11-20T07:53:07;27.77;;;14.80;;
30233;SDS011;17046;52.074;4.748;2022-11-20T07:55:32;26.73;;;15.20;;
30233;SDS011;17046;52.074;4.748;2022-11-20T07:57:58;26.70;;;15.20;;
30233;SDS011;17046;52.074;4.748;2022-11-20T08:00:24;30.23;;;15.53;;
30233;SDS011;17046;52.074;4.748;2022-11-20T08:02:50;28.67;;;15.40;;
30233;SDS011;17046;52.074;4.748;2022-11-20T08:05:16;29.10;;;15.73;;
30233;SDS011;17046;52.074;4.748;2022-11-20T08:07:42;31.27;;;15.50;;
30233;SDS011;17046;52.074;4.748;2022-11-20T08:10:09;31.33;;;16.27;;
30233;SDS011;17046;52.074;4.748;2022-11-20T08:12:44;30.27;;;15.87;;
30233;SDS011;17046;52.074;4.748;2022-11-20T08:15:29;29.37;;;15.50;;
30233;SDS011;17046;52.074;4.748;2022-11-20T08:18:05;28.77;;;15.20;;
30233;SDS011;17046;52.074;4.748;2022-11-20T08:20:32;28.30;;;15.77;;
30233;SDS011;17046;52.074;4.748;2022-11-20T08:23:02;27.83;;;15.33;;
30233;SDS011;17046;52.074;4.748;2022-11-20T08:25:32;28.17;;;14.93;;
30233;SDS011;17046;52.074;4.748;2022-11-20T08:27:59;30.50;;;16.00;;
30233;SDS011;17046;52.074;4.748;2022-11-20T08:30:27;27.80;;;14.93;;
30233;SDS011;17046;52.074;4.748;2022-11-20T08:32:53;26.57;;;15.00;;
30233;SDS011;17046;52.074;4.748;2022-11-20T08:35:20;30.53;;;16.67;;
30233;SDS011;17046;52.074;4.748;2022-11-20T08:37:46;28.73;;;16.70;;
30233;SDS011;17046;52.074;4.748;2022-11-20T08:40:13;29.10;;;16.47;;
30233;SDS011;17046;52.074;4.748;2022-11-20T08:42:48;28.83;;;17.07;;
30233;SDS011;17046;52.074;4.748;2022-11-20T08:45:14;30.90;;;16.20;;
30233;SDS011;17046;52.074;4.748;2022-11-20T08:47:41;31.57;;;17.30;;
30233;SDS011;17046;52.074;4.748;2022-11-20T08:50:08;32.03;;;17.80;;
30233;SDS011;17046;52.074;4.748;2022-11-20T08:52:34;31.50;;;16.77;;
30233;SDS011;17046;52.074;4.748;2022-11-20T08:55:00;29.43;;;17.20;;
30233;SDS011;17046;52.074;4.748;2022-11-20T08:57:25;29.43;;;16.63;;
30233;SDS011;17046;52.074;4.748;2022-11-20T08:59:51;31.87;;;17.77;;
30233;SDS011;17046;52.074;4.748;2022-11-20T09:02:16;34.23;;;17.77;;
30233;SDS011;17046;52.074;4.748;2022-11-20T09:04:42;27.83;;;15.93;;
30233;SDS011;17046;52.074;4.748;2022-11-20T09:07:07;26.90;;;16.63;;
30233;SDS011;17046;52.074;4.748;2022-11-20T09:09:33;27.87;;;15.53;;
30233;SDS011;17046;52.074;4.748;2022-11-20T09:11:58;31.50;;;16.57;;
30233;SDS011;17046;52.074;4.748;2022-11-20T09:14:24;28.53;;;15.57;;
30233;SDS011;17046;52.074;4.748;2022-11-20T09:16:54;31.88;;;18.67;;
30233;SDS011;17046;52.074;4.748;2022-11-20T09:19:20;27.60;;;15.73;;
30233;SDS011;17046;52.074;4.748;2022-11-20T09:21:45;27.87;;;16.30;;
30233;SDS011;17046;52.074;4.748;2022-11-20T09:24:11;28.60;;;16.03;;
30233;SDS011;17046;52.074;4.748;2022-11-20T09:26:36;26.70;;;15.97;;
30233;SDS011;17046;52.074;4.748;2022-11-20T09:29:02;31.83;;;16.37;;
30233;SDS011;17046;52.074;4.748;2022-11-20T09:31:27;30.40;;;17.10;;
30233;SDS011;17046;52.074;4.748;2022-11-20T09:33:53;27.43;;;16.73;;
30233;SDS011;17046;52.074;4.748;2022-11-20T09:36:18;31.43;;;16.03;;
30233;SDS011;17046;52.074;4.748;2022-11-20T09:38:47;26.60;;;15.50;;
30233;SDS011;17046;52.074;4.748;2022-11-20T09:42:02;30.00;;;15.50;;
30233;SDS011;17046;52.074;4.748;2022-11-20T09:46:54;29.47;;;16.90;;
30233;SDS011;17046;52.074;4.748;2022-11-20T09:55:33;25.67;;;15.47;;
30233;SDS011;17046;52.074;4.748;2022-11-20T09:58:00;25.27;;;15.87;;
30233;SDS011;17046;52.074;4.748;2022-11-20T10:00:30;26.30;;;15.53;;
30233;SDS011;17046;52.074;4.748;2022-11-20T10:03:00;27.07;;;15.87;;
30233;SDS011;17046;52.074;4.748;2022-11-20T10:05:35;26.53;;;15.27;;
30233;SDS011;17046;52.074;4.748;2022-11-20T10:10:56;27.87;;;16.40;;
30233;SDS011;17046;52.074;4.748;2022-11-20T10:13:48;28.63;;;16.40;;
30233;SDS011;17046;52.074;4.748;2022-11-20T10:16:26;26.23;;;16.07;;
30233;SDS011;17046;52.074;4.748;2022-11-20T10:24:56;30.03;;;16.40;;
30233;SDS011;17046;52.074;4.748;2022-11-20T10:28:06;29.87;;;16.97;;
30233;SDS011;17046;52.074;4.748;2022-11-20T10:30:37;29.90;;;17.07;;
30233;SDS011;17046;52.074;4.748;2022-11-20T10:33:11;29.07;;;16.53;;
30233;SDS011;17046;52.074;4.748;2022-11-20T10:35:45;28.53;;;16.27;;
30233;SDS011;17046;52.074;4.748;2022-11-20T10:38:50;29.67;;;17.03;;
30233;SDS011;17046;52.074;4.748;2022-11-20T10:41:23;30.27;;;17.33;;
30233;SDS011;17046;52.074;4.748;2022-11-20T10:44:01;28.80;;;16.70;;
30233;SDS011;17046;52.074;4.748;2022-11-20T10:46:40;29.13;;;16.43;;
30233;SDS011;17046;52.074;4.748;2022-11-20T10:49:11;29.47;;;16.57;;
30233;SDS011;17046;52.074;4.748;2022-11-20T10:51:46;29.70;;;17.20;;
30233;SDS011;17046;52.074;4.748;2022-11-20T10:57:41;32.03;;;18.40;;
30233;SDS011;17046;52.074;4.748;2022-11-20T11:00:24;35.57;;;19.07;;
30233;SDS011;17046;52.074;4.748;2022-11-20T11:02:51;30.67;;;18.30;;
30233;SDS011;17046;52.074;4.748;2022-11-20T11:07:58;31.77;;;18.97;;
30233;SDS011;17046;52.074;4.748;2022-11-20T11:10:30;33.10;;;18.50;;
30233;SDS011;17046;52.074;4.748;2022-11-20T11:13:25;30.87;;;17.80;;
30233;SDS011;17046;52.074;4.748;2022-11-20T11:15:52;32.50;;;18.33;;
30233;SDS011;17046;52.074;4.748;2022-11-20T11:20:50;36.30;;;19.93;;
30233;SDS011;17046;52.074;4.748;2022-11-20T11:23:26;33.60;;;19.33;;
30233;SDS011;17046;52.074;4.748;2022-11-20T11:26:04;34.57;;;17.97;;
30233;SDS011;17046;52.074;4.748;2022-11-20T11:28:31;36.23;;;19.53;;
30233;SDS011;17046;52.074;4.748;2022-11-20T11:30:57;33.37;;;19.43;;
30233;SDS011;17046;52.074;4.748;2022-11-20T11:33:24;37.30;;;20.70;;
30233;SDS011;17046;52.074;4.748;2022-11-20T11:35:52;36.87;;;19.40;;
30233;SDS011;17046;52.074;4.748;2022-11-20T11:41:01;42.77;;;22.67;;
30233;SDS011;17046;52.074;4.748;2022-11-20T11:43:30;37.23;;;21.03;;
30233;SDS011;17046;52.074;4.748;2022-11-20T11:48:58;38.30;;;21.77;;
30233;SDS011;17046;52.074;4.748;2022-11-20T11:51:28;41.23;;;21.67;;
30233;SDS011;17046;52.074;4.748;2022-11-20T11:54:05;39.77;;;21.07;;
30233;SDS011;17046;52.074;4.748;2022-11-20T11:56:44;40.03;;;22.03;;
30233;SDS011;17046;52.074;4.748;2022-11-20T11:59:12;40.50;;;22.03;;
30233;SDS011;17046;52.074;4.748;2022-11-20T12:01:48;41.03;;;21.80;;
30233;SDS011;17046;52.074;4.748;2022-11-20T12:04:42;43.27;;;22.27;;
30233;SDS011;17046;52.074;4.748;2022-11-20T12:07:15;39.30;;;21.27;;
30233;SDS011;17046;52.074;4.748;2022-11-20T12:09:52;44.67;;;21.57;;
30233;SDS011;17046;52.074;4.748;2022-11-20T12:12:23;44.20;;;22.57;;
30233;SDS011;17046;52.074;4.748;2022-11-20T12:14:54;39.27;;;21.50;;
30233;SDS011;17046;52.074;4.748;2022-11-20T12:17:22;43.07;;;23.20;;
30233;SDS011;17046;52.074;4.748;2022-11-20T12:19:47;48.67;;;23.13;;
30233;SDS011;17046;52.074;4.748;2022-11-20T12:25:07;43.33;;;22.93;;
30233;SDS011;17046;52.074;4.748;2022-11-20T12:33:44;41.23;;;20.20;;
30233;SDS011;17046;52.074;4.748;2022-11-20T12:36:42;43.00;;;22.27;;
30233;SDS011;17046;52.074;4.748;2022-11-20T12:39:25;42.73;;;20.47;;
30233;SDS011;17046;52.074;4.748;2022-11-20T12:42:27;40.60;;;20.60;;
30233;SDS011;17046;52.074;4.748;2022-11-20T13:08:02;44.13;;;22.73;;
30233;SDS011;17046;52.074;4.748;2022-11-20T13:10:35;46.93;;;21.83;;
30233;SDS011;17046;52.074;4.748;2022-11-20T13:16:00;43.50;;;22.30;;
30233;SDS011;17046;52.074;4.748;2022-11-20T13:18:33;48.03;;;22.93;;
30233;SDS011;17046;52.074;4.748;2022-11-20T13:21:13;50.33;;;23.53;;
30233;SDS011;17046;52.074;4.748;2022-11-20T13:26:32;50.63;;;24.67;;
30233;SDS011;17046;52.074;4.748;2022-11-20T13:28:59;47.83;;;24.37;;
30233;SDS011;17046;52.074;4.748;2022-11-20T13:31:34;52.43;;;25.27;;
30233;SDS011;17046;52.074;4.748;2022-11-20T13:34:03;52.60;;;24.27;;
30233;SDS011;17046;52.074;4.748;2022-11-20T13:36:30;50.70;;;24.00;;
30233;SDS011;17046;52.074;4.748;2022-11-20T13:38:57;50.33;;;24.87;;
30233;SDS011;17046;52.074;4.748;2022-11-20T13:43:59;54.07;;;25.13;;
30233;SDS011;17046;52.074;4.748;2022-11-20T13:46:42;54.80;;;26.10;;
30233;SDS011;17046;52.074;4.748;2022-11-20T13:49:15;58.60;;;25.00;;
30233;SDS011;17046;52.074;4.748;2022-11-20T13:51:49;53.40;;;25.53;;
30233;SDS011;17046;52.074;4.748;2022-11-20T13:57:21;57.00;;;26.23;;
30233;SDS011;17046;52.074;4.748;2022-11-20T14:02:35;58.40;;;25.87;;
30233;SDS011;17046;52.074;4.748;2022-11-20T14:05:00;60.73;;;26.60;;
30233;SDS011;17046;52.074;4.748;2022-11-20T14:07:34;61.80;;;27.23;;
30233;SDS011;17046;52.074;4.748;2022-11-20T14:10:05;66.00;;;28.07;;
30233;SDS011;17046;52.074;4.748;2022-11-20T14:12:31;64.53;;;27.87;;
30233;SDS011;17046;52.074;4.748;2022-11-20T14:14:58;61.63;;;28.90;;
30233;SDS011;17046;52.074;4.748;2022-11-20T14:17:31;66.77;;;29.07;;
30233;SDS011;17046;52.074;4.748;2022-11-20T14:20:11;71.00;;;29.30;;
30233;SDS011;17046;52.074;4.748;2022-11-20T14:22:39;65.17;;;29.13;;
30233;SDS011;17046;52.074;4.748;2022-11-20T14:27:43;72.13;;;31.27;;
30233;SDS011;17046;52.074;4.748;2022-11-20T14:32:44;69.37;;;30.20;;
30233;SDS011;17046;52.074;4.748;2022-11-20T14:35:19;75.20;;;32.20;;
30233;SDS011;17046;52.074;4.748;2022-11-20T14:37:53;76.97;;;32.83;;
30233;SDS011;17046;52.074;4.748;2022-11-20T14:42:52;73.17;;;30.97;;
30233;SDS011;17046;52.074;4.748;2022-11-20T14:45:17;72.50;;;32.80;;
30233;SDS011;17046;52.074;4.748;2022-11-20T14:47:44;76.47;;;32.83;;
30233;SDS011;17046;52.074;4.748;2022-11-20T14:50:15;72.57;;;32.97;;
30233;SDS011;17046;52.074;4.748;2022-11-20T14:52:50;74.20;;;33.20;;
30233;SDS011;17046;52.074;4.748;2022-11-20T14:55:30;75.40;;;34.00;;
30233;SDS011;17046;52.074;4.748;2022-11-20T14:58:06;73.17;;;33.43;;
30233;SDS011;17046;52.074;4.748;2022-11-20T15:00:53;70.33;;;32.20;;
30233;SDS011;17046;52.074;4.748;2022-11-20T15:03:20;75.27;;;33.27;;
30233;SDS011;17046;52.074;4.748;2022-11-20T15:05:48;76.27;;;34.37;;
30233;SDS011;17046;52.074;4.748;2022-11-20T15:08:15;81.27;;;35.57;;
30233;SDS011;17046;52.074;4.748;2022-11-20T15:10:45;77.60;;;36.17;;
30233;SDS011;17046;52.074;4.748;2022-11-20T15:13:14;87.77;;;38.27;;
30233;SDS011;17046;52.074;4.748;2022-11-20T15:15:56;82.50;;;37.17;;
30233;SDS011;17046;52.074;4.748;2022-11-20T15:18:36;87.73;;;38.73;;
30233;SDS011;17046;52.074;4.748;2022-11-20T15:21:03;78.93;;;37.63;;
30233;SDS011;17046;52.074;4.748;2022-11-20T15:23:34;86.90;;;39.07;;
30233;SDS011;17046;52.074;4.748;2022-11-20T15:26:00;85.30;;;38.37;;
30233;SDS011;17046;52.074;4.748;2022-11-20T15:31:00;81.80;;;37.57;;
30233;SDS011;17046;52.074;4.748;2022-11-20T15:33:27;81.17;;;37.33;;
30233;SDS011;17046;52.074;4.748;2022-11-20T15:35:52;80.60;;;35.43;;
30233;SDS011;17046;52.074;4.748;2022-11-20T15:38:18;84.70;;;37.57;;
30233;SDS011;17046;52.074;4.748;2022-11-20T15:40:43;81.57;;;36.93;;
30233;SDS011;17046;52.074;4.748;2022-11-20T15:43:09;79.33;;;37.60;;
30233;SDS011;17046;52.074;4.748;2022-11-20T15:45:44;85.57;;;39.23;;
30233;SDS011;17046;52.074;4.748;2022-11-20T15:50:58;95.93;;;42.43;;
30233;SDS011;17046;52.074;4.748;2022-11-20T15:53:30;93.17;;;40.77;;
30233;SDS011;17046;52.074;4.748;2022-11-20T15:55:56;93.33;;;42.87;;
30233;SDS011;17046;52.074;4.748;2022-11-20T15:58:22;93.93;;;41.13;;
30233;SDS011;17046;52.074;4.748;2022-11-20T16:00:49;97.60;;;44.43;;
30233;SDS011;17046;52.074;4.748;2022-11-20T16:03:14;95.33;;;41.00;;
30233;SDS011;17046;52.074;4.748;2022-11-20T16:05:41;99.27;;;41.53;;
30233;SDS011;17046;52.074;4.748;2022-11-20T16:08:06;90.33;;;37.97;;
30233;SDS011;17046;52.074;4.748;2022-11-20T16:10:32;85.00;;;38.20;;
30233;SDS011;17046;52.074;4.748;2022-11-20T16:12:58;79.50;;;37.60;;